| time (UTC) | temp F | wind direction | speed knots | gust knots | rain 1hr in | rain 24hr in | rain mn in | humidity % | barometer mb |
| 20260506103121 | 43 | 326 | 2.6 | 4.3 | 0.00 | 0.03 | 0.00 | 80 | 1012.6 |
| 20260506102121 | 43 | 347 | 2.6 | 4.3 | 0.00 | 0.03 | 0.00 | 79 | 1012.8 |
| 20260506101122 | 43 | 1 | 2.6 | 4.3 | 0.00 | 0.03 | 0.00 | 81 | 1012.7 |
| 20260506100122 | 42 | 334 | 1.7 | 2.6 | 0.00 | 0.03 | 0.00 | 81 | 1012.7 |
| 20260506095123 | 43 | 325 | 1.7 | 3.5 | 0.00 | 0.03 | 0.00 | 81 | 1012.7 |
| 20260506094121 | 43 | 353 | 2.6 | 3.5 | 0.00 | 0.03 | 0.00 | 82 | 1012.4 |
| 20260506093121 | 43 | 350 | 2.6 | 3.5 | 0.00 | 0.03 | 0.00 | 83 | 1012.3 |
| 20260506092121 | 43 | 346 | 3.5 | 4.3 | 0.00 | 0.03 | 0.00 | 83 | 1012.0 |
| 20260506091121 | 43 | 8 | 2.6 | 3.5 | 0.00 | 0.03 | 0.00 | 86 | 1012.2 |
| 20260506090121 | 43 | 355 | 1.7 | 3.5 | 0.00 | 0.03 | 0.00 | 87 | 1012.3 |
| 20260506085122 | 42 | 341 | 0.9 | 3.5 | 0.00 | 0.03 | 0.00 | 90 | 1012.3 |
| 20260506084122 | 41 | 324 | 0.9 | 1.7 | 0.00 | 0.03 | 0.00 | 93 | 1012.1 |
| 20260506083144 | 40 | 23 | 0.0 | 0.0 | 0.00 | 0.03 | 0.00 | 97 | 1012.3 |
| 20260506082121 | 39 | 293 | 0.0 | 0.0 | 0.00 | 0.03 | 0.00 | 99 | 1012.2 |
| 20260506081142 | 39 | 293 | 0.0 | 0.0 | 0.00 | 0.03 | 0.00 | 98 | 1011.9 |
| 20260506080121 | 39 | 270 | 0.0 | 0.0 | 0.00 | 0.03 | 0.00 | 97 | 1011.9 |
| 20260506073123 | 39 | 23 | 0.0 | 0.0 | 0.00 | 0.03 | 0.00 | 95 | 1011.9 |
| 20260506072122 | 39 | 203 | 0.0 | 0.0 | 0.00 | 0.03 | 0.00 | 94 | 1011.8 |
| 20260506071122 | 39 | 180 | 0.0 | 0.0 | 0.00 | 0.03 | 0.00 | 95 | 1011.9 |
| 20260506070121 | 39 | 315 | 0.0 | 0.9 | 0.00 | 0.03 | 0.00 | 94 | 1011.7 |
| 20260506062142 | 42 | 23 | 0.0 | 0.0 | 0.00 | 0.03 | 0.00 | 88 | 1011.5 |
| 20260506061122 | 43 | 203 | 0.0 | 0.0 | 0.00 | 0.03 | 0.00 | 88 | 1011.7 |
| 20260506060123 | 44 | 293 | 0.0 | 0.0 | 0.00 | 0.03 | 0.00 | 86 | 1011.7 |
| 20260506051121 | 44 | 180 | 0.0 | 0.0 | 0.00 | 0.03 | 0.00 | 81 | 1011.4 |
| 20260506050121 | 44 | 293 | 0.0 | 0.0 | 0.00 | 0.03 | 0.00 | 82 | 1011.6 |
| 20260506044121 | 44 | 225 | 0.0 | 0.0 | 0.00 | 0.03 | 0.03 | 80 | 1011.5 |
| 20260506043122 | 45 | 225 | 0.0 | 0.0 | 0.00 | 0.03 | 0.03 | 78 | 1011.4 |
| 20260506042122 | 46 | 225 | 0.0 | 0.0 | 0.00 | 0.03 | 0.03 | 78 | 1011.4 |
| 20260506041121 | 46 | 225 | 0.0 | 0.0 | 0.00 | 0.03 | 0.03 | 76 | 1011.4 |
| 20260506040121 | 47 | 225 | 0.0 | 0.0 | 0.00 | 0.03 | 0.03 | 78 | 1011.6 |
| 20260506035121 | 48 | 225 | 0.0 | 0.0 | 0.00 | 0.03 | 0.03 | 75 | 1011.6 |
| 20260506034121 | 48 | 203 | 0.0 | 0.0 | 0.00 | 0.03 | 0.03 | 77 | 1011.6 |
| 20260506033121 | 48 | 203 | 0.0 | 0.0 | 0.00 | 0.03 | 0.03 | 75 | 1011.8 |
| 20260506032142 | 48 | 180 | 0.0 | 0.0 | 0.00 | 0.03 | 0.03 | 77 | 1011.5 |
| 20260506031121 | 48 | 180 | 0.0 | 0.0 | 0.00 | 0.03 | 0.03 | 78 | 1011.4 |
| 20260506030121 | 49 | 210 | 0.0 | 1.7 | 0.00 | 0.03 | 0.03 | 77 | 1011.3 |
| 20260506025121 | 49 | 211 | 0.0 | 1.7 | 0.00 | 0.03 | 0.03 | 73 | 1011.3 |
| 20260506024121 | 49 | 158 | 0.0 | 0.0 | 0.00 | 0.05 | 0.03 | 72 | 1011.3 |
| 20260506023121 | 49 | 225 | 0.0 | 1.7 | 0.00 | 0.07 | 0.03 | 69 | 1011.4 |
| 20260506022121 | 49 | 231 | 0.9 | 1.7 | 0.00 | 0.08 | 0.03 | 72 | 1011.0 |
| 20260506021121 | 49 | 225 | 0.0 | 0.0 | 0.00 | 0.08 | 0.03 | 69 | 1010.7 |
| 20260506020145 | 50 | 225 | 0.0 | 0.9 | 0.00 | 0.08 | 0.03 | 64 | 1010.7 |
| 20260506015145 | 50 | 180 | 0.0 | 0.0 | 0.00 | 0.08 | 0.03 | 63 | 1010.6 |
| 20260506014121 | 50 | 270 | 0.0 | 1.7 | 0.00 | 0.08 | 0.03 | 62 | 1010.5 |
| 20260506013122 | 50 | 248 | 0.0 | 0.0 | 0.00 | 0.09 | 0.03 | 62 | 1010.4 |
| 20260506012121 | 51 | 293 | 0.0 | 0.0 | 0.00 | 0.09 | 0.03 | 62 | 1010.5 |
| 20260506011142 | 51 | 281 | 0.0 | 0.9 | 0.00 | 0.09 | 0.03 | 61 | 1010.2 |
| 20260506010124 | 51 | 4 | 0.0 | 1.7 | 0.00 | 0.09 | 0.03 | 62 | 1010.1 |
| 20260506005122 | 51 | 270 | 0.0 | 0.0 | 0.00 | 0.09 | 0.03 | 59 | 1010.1 |
| 20260506004121 | 52 | 235 | 0.0 | 1.7 | 0.00 | 0.09 | 0.03 | 59 | 1010.1 |
| 20260506003121 | 52 | 281 | 0.0 | 0.9 | 0.00 | 0.09 | 0.03 | 58 | 1009.8 |
| 20260506002121 | 53 | 296 | 0.9 | 1.7 | 0.00 | 0.09 | 0.03 | 56 | 1009.8 |
| 20260506001122 | 53 | 274 | 0.9 | 2.6 | 0.00 | 0.09 | 0.03 | 57 | 1009.8 |
| 20260506000125 | 53 | 304 | 0.9 | 3.5 | 0.00 | 0.09 | 0.03 | 56 | 1009.8 |
| 20260505235142 | 53 | 328 | 1.7 | 3.5 | 0.00 | 0.09 | 0.03 | 55 | 1009.7 |
| 20260505234121 | 53 | 346 | 1.7 | 3.5 | 0.00 | 0.09 | 0.03 | 54 | 1009.9 |
| 20260505233121 | 53 | 326 | 0.9 | 2.6 | 0.00 | 0.09 | 0.03 | 57 | 1010.0 |
| 20260505232124 | 53 | 319 | 1.7 | 3.5 | 0.00 | 0.09 | 0.03 | 55 | 1009.9 |
| 20260505231123 | 53 | 282 | 1.7 | 3.5 | 0.00 | 0.09 | 0.03 | 55 | 1009.9 |
| 20260505230122 | 53 | 313 | 1.7 | 2.6 | 0.00 | 0.09 | 0.03 | 56 | 1009.9 |
| 20260505225121 | 53 | 312 | 2.6 | 6.1 | 0.00 | 0.09 | 0.03 | 54 | 1009.9 |
| 20260505224121 | 53 | 318 | 1.7 | 4.3 | 0.00 | 0.09 | 0.03 | 56 | 1010.1 |
| 20260505223124 | 54 | 286 | 1.7 | 3.5 | 0.00 | 0.09 | 0.03 | 54 | 1010.0 |
| 20260505222121 | 54 | 311 | 1.7 | 5.2 | 0.00 | 0.09 | 0.03 | 58 | 1010.2 |
| 20260505221121 | 53 | 321 | 1.7 | 3.5 | 0.00 | 0.09 | 0.03 | 54 | 1010.1 |
| 20260505220142 | 54 | 292 | 1.7 | 3.5 | 0.00 | 0.09 | 0.03 | 54 | 1010.1 |
| 20260505215122 | 53 | 298 | 2.6 | 4.3 | 0.00 | 0.09 | 0.03 | 54 | 1010.2 |
| 20260505214122 | 53 | 317 | 2.6 | 4.3 | 0.00 | 0.09 | 0.03 | 54 | 1010.4 |
| 20260505213122 | 53 | 308 | 3.5 | 7.0 | 0.00 | 0.09 | 0.03 | 52 | 1010.3 |
| 20260505212122 | 54 | 329 | 3.5 | 7.0 | 0.00 | 0.09 | 0.03 | 52 | 1010.2 |
| 20260505211121 | 54 | 332 | 2.6 | 5.2 | 0.00 | 0.09 | 0.03 | 56 | 1010.3 |
| 20260505210122 | 55 | 352 | 2.6 | 5.2 | 0.00 | 0.09 | 0.03 | 54 | 1010.7 |
| 20260505205142 | 55 | 326 | 3.5 | 6.1 | 0.00 | 0.09 | 0.03 | 54 | 1010.7 |
| 20260505204143 | 56 | 334 | 2.6 | 6.1 | 0.00 | 0.09 | 0.03 | 55 | 1010.8 |
| 20260505203122 | 56 | 249 | 1.7 | 4.3 | 0.00 | 0.09 | 0.03 | 61 | 1010.9 |
| 20260505202122 | 55 | 225 | 3.5 | 5.2 | 0.00 | 0.09 | 0.03 | 63 | 1011.1 |
| 20260505201122 | 54 | 289 | 2.6 | 4.3 | 0.00 | 0.09 | 0.03 | 64 | 1011.1 |
| 20260505200122 | 53 | 247 | 1.7 | 3.5 | 0.00 | 0.09 | 0.03 | 63 | 1011.4 |
| 20260505195122 | 53 | 267 | 2.6 | 5.2 | 0.00 | 0.09 | 0.03 | 64 | 1011.4 |
| 20260505194125 | 54 | 233 | 1.7 | 4.3 | 0.00 | 0.09 | 0.03 | 63 | 1011.3 |
| 20260505193124 | 53 | 237 | 2.6 | 6.1 | 0.00 | 0.09 | 0.03 | 62 | 1011.4 |
| 20260505192124 | 53 | 237 | 2.6 | 4.3 | 0.00 | 0.09 | 0.03 | 64 | 1011.3 |
| 20260505191122 | 53 | 238 | 1.7 | 4.3 | 0.00 | 0.09 | 0.03 | 65 | 1011.5 |
| 20260505190122 | 53 | 245 | 1.7 | 4.3 | 0.00 | 0.09 | 0.03 | 64 | 1011.5 |
| 20260505185124 | 53 | 255 | 1.7 | 4.3 | 0.00 | 0.09 | 0.03 | 65 | 1011.5 |
| 20260505184124 | 52 | 237 | 1.7 | 3.5 | 0.00 | 0.09 | 0.03 | 66 | 1011.5 |
| 20260505183124 | 52 | 276 | 1.7 | 2.6 | 0.00 | 0.09 | 0.03 | 63 | 1011.4 |
| 20260505182122 | 53 | 11 | 1.7 | 2.6 | 0.00 | 0.09 | 0.03 | 62 | 1011.6 |
| 20260505181122 | 53 | 268 | 1.7 | 3.5 | 0.00 | 0.09 | 0.03 | 61 | 1011.5 |
| 20260505180122 | 53 | 313 | 1.7 | 4.3 | 0.00 | 0.09 | 0.03 | 59 | 1011.5 |
| 20260505175126 | 53 | 308 | 2.6 | 3.5 | 0.00 | 0.09 | 0.03 | 63 | 1011.6 |
| 20260505174126 | 53 | 316 | 3.5 | 5.2 | 0.00 | 0.09 | 0.03 | 61 | 1011.6 |
| 20260505173122 | 52 | 310 | 3.5 | 5.2 | 0.00 | 0.09 | 0.03 | 61 | 1011.5 |
| 20260505172122 | 53 | 319 | 2.6 | 4.3 | 0.00 | 0.09 | 0.03 | 61 | 1011.3 |
| 20260505171121 | 53 | 334 | 2.6 | 7.0 | 0.00 | 0.09 | 0.03 | 61 | 1011.0 |
| 20260505170121 | 53 | 359 | 4.3 | 6.1 | 0.00 | 0.09 | 0.03 | 61 | 1011.0 |
| 20260505165121 | 53 | 338 | 3.5 | 7.0 | 0.00 | 0.09 | 0.03 | 59 | 1011.0 |
| 20260505164121 | 53 | 336 | 3.5 | 6.1 | 0.00 | 0.09 | 0.03 | 62 | 1010.9 |
| 20260505163122 | 53 | 343 | 4.3 | 7.8 | 0.00 | 0.09 | 0.03 | 60 | 1010.9 |
| 20260505162148 | 54 | 343 | 4.3 | 7.0 | 0.00 | 0.09 | 0.03 | 63 | 1011.0 |
| 20260505161125 | 54 | 324 | 4.3 | 6.1 | 0.00 | 0.09 | 0.03 | 65 | 1010.7 |
| 20260505160146 | 53 | 335 | 3.5 | 5.2 | 0.00 | 0.09 | 0.03 | 65 | 1010.4 |
| 20260505153124 | 53 | 306 | 3.5 | 5.2 | 0.00 | 0.09 | 0.03 | 70 | 1010.1 |
| 20260505152123 | 52 | 314 | 4.3 | 7.8 | 0.00 | 0.09 | 0.03 | 71 | 1010.1 |
| 20260505151145 | 51 | 331 | 2.6 | 5.2 | 0.00 | 0.09 | 0.03 | 74 | 1010.3 |
| 20260505150122 | 50 | 320 | 3.5 | 5.2 | 0.00 | 0.09 | 0.03 | 77 | 1010.2 |
| 20260505140122 | 47 | 332 | 3.5 | 5.2 | 0.00 | 0.09 | 0.03 | 83 | 1010.3 |
| 20260505130124 | 46 | 310 | 3.5 | 7.0 | 0.03 | 0.09 | 0.03 | 86 | 1010.2 |
| 20260505124122 | 46 | 294 | 2.6 | 6.1 | 0.02 | 0.08 | 0.02 | 86 | 1010.6 |
| 20260505123122 | 47 | 306 | 3.5 | 6.1 | 0.01 | 0.07 | 0.01 | 82 | 1010.9 |
| 20260505122122 | 48 | 289 | 2.6 | 4.3 | 0.01 | 0.07 | 0.01 | 82 | 1011.4 |
| 20260505121121 | 48 | 298 | 2.6 | 5.2 | 0.00 | 0.06 | 0.00 | 77 | 1011.2 |
| 20260505120122 | 49 | 321 | 2.6 | 4.3 | 0.00 | 0.06 | 0.00 | 71 | 1010.5 |
| 20260505115143 | 49 | 289 | 3.5 | 6.1 | 0.00 | 0.06 | 0.00 | 71 | 1010.5 |
| 20260505114122 | 49 | 307 | 2.6 | 5.2 | 0.00 | 0.06 | 0.00 | 71 | 1009.0 |
| 20260505113123 | 49 | 293 | 3.5 | 7.8 | 0.00 | 0.06 | 0.00 | 72 | 1008.8 |
| 20260505112123 | 49 | 294 | 2.6 | 5.2 | 0.00 | 0.06 | 0.00 | 74 | 1008.8 |
| 20260505111124 | 49 | 301 | 2.6 | 4.3 | 0.00 | 0.06 | 0.00 | 73 | 1009.0 |
| 20260505110122 | 50 | 257 | 3.5 | 5.2 | 0.00 | 0.06 | 0.00 | 70 | 1009.0 |